Terminal Aerodrome Forecast
Issued by NWS

Home | Current Version | Previous Version | Text Only | Print | Product List | Glossary On
Versions: 1 2 3 4 5 6 7 8 9 10 11 12 13 14 15 16 17
278
FTUS43 KDTX 301725
TAFMBS
TAF
KMBS 301725Z 3018/0118 07012KT P6SM OVC150
     FM302300 06012KT 6SM -RA OVC060
     FM010100 05011KT 4SM -RA BR OVC025
     FM010400 05011KT 3SM -RA BR OVC007
     FM011000 04010KT 4SM RA BR OVC012
     FM011500 05013KT 5SM -SHRA BR OVC015=

USA.gov is the U.S. government's official web portal to all federal, state and local government web resources and services.